Weather History for Warrensburg, MO

Change the Weather History Date:

Saturday, May 11, 2013

  Actual Average (KSZL) Record (KSZL)
Temperature  
Mean Temperature 52 °F -  
Max Temperature 62 °F 72 °F 87 °F (2011)
Min Temperature 42 °F 53 °F 43 °F (2013)
Degree Days  
Heating Degree Days 13    
Growing Degree Days 2 (Base 50)    
Moisture  
Dew Point 37 °F    
Average Humidity 59    
Maximum Humidity 100    
Minimum Humidity 30    
Precipitation  
Precipitation 0.00 in - - ()
Sea Level Pressure  
Sea Level Pressure 30.13 in    
Wind  
Wind Speed 6 mph (NW)    
Max Wind Speed 21 mph    
Max Gust Speed 26 mph    
Visibility 9 miles    
Events      
Averages and records for this station are not official NWS values.
T = Trace of Precipitation, MM = Missing Value Source: NWS Daily Summary

Daily Weather History Graph

Daily Weather History Graph

Search for Another Location

Airport:

Trip Planner

Search our weather history database for the weather conditions in past years. The results will help you decide how hot, cold, wet, or windy it might be!

Date:

Astronomy

May. 11, 2013 Rise Set
Actual Time 6:06 AM CDT 8:17 PM CDT
Civil Twilight 5:36 AM CDT 8:46 PM CDT
Nautical Twilight 5:00 AM CDT 9:23 PM CDT
Astronomical Twilight 4:21 AM CDT 10:03 PM CDT
Moon 7:15 AM CDT (5/11) 9:57 PM CDT (5/11)
Length of Visible Light 15h 10m
Length of Day
14h 10m
Waxing Crescent, 3% of the Moon is Illuminated
May 11
Waxing Crescent
May 17
First Quarter
May 24
Full
May 31
Last Quarter
Jun 8
New

Hourly Weather History & Observations

Time (CDT) Temp. Windchill Dew Point Humidity Pressure Visibility Wind Dir Wind Speed Gust Speed Precip Events Conditions
12:15 AM 50.0 °F - 48.2 °F 94% 30.05 in 10.0 mi Calm Calm - N/A   Clear
12:35 AM 50.0 °F - 46.4 °F 87% 30.05 in 7.0 mi Calm Calm - N/A   Clear
12:55 AM 46.4 °F - 44.6 °F 93% 30.06 in 1.2 mi Calm Calm - N/A   Mist
1:15 AM 46.4 °F 45.2 °F 46.4 °F 100% 30.06 in 4.0 mi SSE 3.5 mph - N/A   Clear
1:55 AM 46.4 °F - 44.6 °F 93% 30.07 in 5.0 mi Calm Calm - N/A   Clear
2:15 AM 46.4 °F - 44.6 °F 93% 30.06 in 5.0 mi Calm Calm - N/A   Clear
2:35 AM 44.6 °F 43.1 °F 42.8 °F 93% 30.06 in 10.0 mi South 3.5 mph - N/A   Clear
2:55 AM 44.6 °F - 42.8 °F 93% 30.05 in 4.0 mi Calm Calm - N/A   Clear
3:15 AM 44.6 °F 43.1 °F 42.8 °F 93% 30.05 in 7.0 mi SSE 3.5 mph - N/A   Clear
3:35 AM 44.6 °F 43.1 °F 42.8 °F 93% 30.05 in 4.0 mi South 3.5 mph - N/A   Clear
3:55 AM 44.6 °F - 42.8 °F 93% 30.05 in 5.0 mi Calm Calm - N/A   Clear
4:15 AM 42.8 °F 41.1 °F 42.8 °F 100% 30.05 in 10.0 mi South 3.5 mph - N/A   Clear
4:35 AM 42.8 °F - 42.8 °F 100% 30.05 in 10.0 mi Calm Calm - N/A   Clear
4:55 AM 44.6 °F - 42.8 °F 93% 30.04 in 4.0 mi Calm Calm - N/A   Clear
5:15 AM 42.8 °F 41.1 °F 42.8 °F 100% 30.04 in 4.0 mi South 3.5 mph - N/A   Clear
5:35 AM 44.6 °F 43.1 °F 42.8 °F 93% 30.05 in 7.0 mi South 3.5 mph - N/A   Clear
5:55 AM 44.6 °F 42.2 °F 42.8 °F 93% 30.05 in 10.0 mi SSW 4.6 mph - N/A   Clear
6:15 AM 44.6 °F 43.1 °F 42.8 °F 93% 30.05 in 10.0 mi SW 3.5 mph - N/A   Clear
6:35 AM 44.6 °F 42.2 °F 42.8 °F 93% 30.06 in 10.0 mi South 4.6 mph - N/A   Clear
6:55 AM 46.4 °F 44.3 °F 44.6 °F 93% 30.06 in 10.0 mi SW 4.6 mph - N/A   Clear
7:35 AM 51.8 °F - 48.2 °F 88% 30.06 in 10.0 mi West 6.9 mph - N/A   Clear
7:55 AM 53.6 °F - 46.4 °F 77% 30.06 in 10.0 mi West 5.8 mph - N/A   Clear
8:15 AM 55.4 °F - 48.2 °F 77% 30.07 in 10.0 mi WNW 5.8 mph - N/A   Clear
8:35 AM 55.4 °F - 50.0 °F 82% 30.08 in 10.0 mi WNW 11.5 mph - N/A   Clear
8:55 AM 59.0 °F - 48.2 °F 67% 30.09 in 10.0 mi NW 16.1 mph 26.5 mph N/A   Clear
9:15 AM 59.0 °F - 46.4 °F 63% 30.10 in 10.0 mi NNW 12.7 mph 19.6 mph N/A   Clear
9:35 AM 59.0 °F - 42.8 °F 55% 30.11 in 10.0 mi NNW 19.6 mph 25.3 mph N/A   Clear
9:55 AM 59.0 °F - 35.6 °F 42% 30.11 in 10.0 mi NNW 20.7 mph 26.5 mph N/A   Clear
10:15 AM 59.0 °F - 37.4 °F 45% 30.12 in 10.0 mi North 17.3 mph - N/A   Clear
10:35 AM 60.8 °F - 35.6 °F 39% 30.13 in 10.0 mi NNW 16.1 mph 21.9 mph N/A   Clear
10:55 AM 60.8 °F - 33.8 °F 36% 30.15 in 10.0 mi NNW 11.5 mph 21.9 mph N/A   Clear
11:15 AM 60.8 °F - 32.0 °F 34% 30.15 in 10.0 mi NNW 17.3 mph 25.3 mph N/A   Clear
11:35 AM 60.8 °F - 32.0 °F 34% 30.16 in 10.0 mi North 17.3 mph 26.5 mph N/A   Clear
12:15 PM 60.8 °F - 32.0 °F 34% 30.17 in 10.0 mi NNW 19.6 mph 25.3 mph N/A   Clear
12:35 PM 60.8 °F - 33.8 °F 36% 30.16 in 10.0 mi NNW 16.1 mph 21.9 mph N/A   Clear
12:55 PM 62.6 °F - 33.8 °F 34% 30.16 in 10.0 mi NW 17.3 mph 24.2 mph N/A   Clear
1:15 PM 62.6 °F - 33.8 °F 34% 30.16 in 10.0 mi NNW 15.0 mph 24.2 mph N/A   Clear
1:35 PM 62.6 °F - 33.8 °F 34% 30.17 in 10.0 mi NNW 17.3 mph 24.2 mph N/A   Clear
1:55 PM 62.6 °F - 32.0 °F 32% 30.17 in 10.0 mi NW 13.8 mph 21.9 mph N/A   Clear
2:15 PM 62.6 °F - 33.8 °F 34% 30.17 in 10.0 mi NW 10.4 mph 16.1 mph N/A   Clear
2:35 PM 62.6 °F - 32.0 °F 32% 30.18 in 10.0 mi NNW 13.8 mph 25.3 mph N/A   Clear
2:55 PM 62.6 °F - 32.0 °F 32% 30.18 in 10.0 mi NNW 12.7 mph - N/A   Clear
3:35 PM 62.6 °F - 32.0 °F 32% 30.17 in 10.0 mi NNW 13.8 mph 21.9 mph N/A   Clear
3:55 PM 62.6 °F - 32.0 °F 32% 30.17 in 10.0 mi NW 16.1 mph 26.5 mph N/A   Clear
4:15 PM 62.6 °F - 32.0 °F 32% 30.17 in 10.0 mi NW 12.7 mph 18.4 mph N/A   Clear
4:35 PM 62.6 °F - 32.0 °F 32% 30.17 in 10.0 mi NNW 16.1 mph 21.9 mph N/A   Clear
4:55 PM 62.6 °F - 30.2 °F 30% 30.17 in 10.0 mi NNW 12.7 mph 19.6 mph N/A   Clear
5:15 PM 62.6 °F - 30.2 °F 30% 30.17 in 10.0 mi NNW 15.0 mph 19.6 mph N/A   Clear
5:35 PM 62.6 °F - 32.0 °F 32% 30.17 in 10.0 mi NW 15.0 mph 21.9 mph N/A   Clear
5:55 PM 62.6 °F - 32.0 °F 32% 30.17 in 10.0 mi NW 10.4 mph 19.6 mph N/A   Clear
6:15 PM 62.6 °F - 32.0 °F 32% 30.17 in 10.0 mi NW 10.4 mph - N/A   Clear
6:35 PM 60.8 °F - 32.0 °F 34% 30.17 in 10.0 mi NNW 12.7 mph 17.3 mph N/A   Clear
6:55 PM 60.8 °F - 32.0 °F 34% 30.17 in 10.0 mi NW 9.2 mph - N/A   Clear
7:15 PM 60.8 °F - 32.0 °F 34% 30.18 in 10.0 mi NW 9.2 mph - N/A   Clear
7:35 PM 59.0 °F - 32.0 °F 36% 30.18 in 10.0 mi NNW 8.1 mph - N/A   Clear
7:55 PM 57.2 °F - 32.0 °F 38% 30.19 in 10.0 mi NNW 8.1 mph - N/A   Clear
8:15 PM 55.4 °F - 32.0 °F 41% 30.19 in 10.0 mi North 5.8 mph - N/A   Clear
8:35 PM 53.6 °F - 30.2 °F 41% 30.19 in 10.0 mi NNW 3.5 mph - N/A   Clear
8:55 PM 53.6 °F - 30.2 °F 41% 30.20 in 10.0 mi NNW 3.5 mph - N/A   Clear
9:15 PM 53.6 °F - 30.2 °F 41% 30.20 in 10.0 mi NNW 3.5 mph - N/A   Clear
9:55 PM 50.0 °F - 32.0 °F 50% 30.22 in 10.0 mi NNW 4.6 mph - N/A   Clear
10:15 PM 50.0 °F - 32.0 °F 50% 30.23 in 10.0 mi NNW 4.6 mph - N/A   Clear
10:35 PM 50.0 °F - 32.0 °F 50% 30.24 in 10.0 mi NNW 3.5 mph - N/A   Clear
10:55 PM 50.0 °F - 32.0 °F 50% 30.24 in 10.0 mi NNW 3.5 mph - N/A   Clear
11:15 PM 46.4 °F 44.3 °F 32.0 °F 57% 30.23 in 10.0 mi North 4.6 mph - N/A   Clear
11:55 PM 46.4 °F - 32.0 °F 57% 30.24 in 10.0 mi Calm Calm - N/A   Clear